sensor_id;sensor_type;location;lat;lon;timestamp;P1;P2;P0
62981;PMS5003;49075;53.988;27.678;2022-11-13T00:04:53;20.2;19.6;16
62981;PMS5003;49075;53.988;27.678;2022-11-13T00:09:53;23.3;22.5;16.8
62981;PMS5003;49075;53.988;27.678;2022-11-13T00:14:23;21;20.4;17
62981;PMS5003;49075;53.988;27.678;2022-11-13T00:19:25;21.8;20.8;16.4
62981;PMS5003;49075;53.988;27.678;2022-11-13T00:24:25;21.2;20.8;16
62981;PMS5003;49075;53.988;27.678;2022-11-13T00:29:23;18;17.8;15.2
62981;PMS5003;49075;53.988;27.678;2022-11-13T00:34:33;20.2;19.8;14.6
62981;PMS5003;49075;53.988;27.678;2022-11-13T00:39:12;16.6;16.6;13.6
62981;PMS5003;49075;53.988;27.678;2022-11-13T00:44:51;16.6;16;13.4
62981;PMS5003;49075;53.988;27.678;2022-11-13T00:49:25;22.4;21.8;17.8
62981;PMS5003;49075;53.988;27.678;2022-11-13T00:54:51;19;19;15.2
62981;PMS5003;49075;53.988;27.678;2022-11-13T00:59:11;20.8;20.4;16
62981;PMS5003;49075;53.988;27.678;2022-11-13T01:04:23;18.8;18.6;14.8
62981;PMS5003;49075;53.988;27.678;2022-11-13T01:09:37;20;20;16.8
62981;PMS5003;49075;53.988;27.678;2022-11-13T01:14:51;22.8;21.6;18
62981;PMS5003;49075;53.988;27.678;2022-11-13T01:19:49;19.8;19.6;14.8
62981;PMS5003;49075;53.988;27.678;2022-11-13T01:24:11;16.2;16;12.4
62981;PMS5003;49075;53.988;27.678;2022-11-13T01:29:53;20.8;20.2;15.6
62981;PMS5003;49075;53.988;27.678;2022-11-13T01:34:29;21;20.8;16
62981;PMS5003;49075;53.988;27.678;2022-11-13T01:39:55;19.2;19.2;16
62981;PMS5003;49075;53.988;27.678;2022-11-13T01:44:44;20;19.4;15.2
62981;PMS5003;49075;53.988;27.678;2022-11-13T01:49:30;19.2;18.6;15
62981;PMS5003;49075;53.988;27.678;2022-11-13T01:54:23;17.8;17.4;14.2
62981;PMS5003;49075;53.988;27.678;2022-11-13T01:59:56;19.2;19.2;16.6
62981;PMS5003;49075;53.988;27.678;2022-11-13T02:04:29;21.6;20.6;15.4
62981;PMS5003;49075;53.988;27.678;2022-11-13T02:09:54;18.6;18;13.6
62981;PMS5003;49075;53.988;27.678;2022-11-13T02:14:26;18.5;18.3;14
62981;PMS5003;49075;53.988;27.678;2022-11-13T02:19:41;21.6;21.2;15.8
62981;PMS5003;49075;53.988;27.678;2022-11-13T02:24:25;19;18.4;14.8
62981;PMS5003;49075;53.988;27.678;2022-11-13T02:29:43;18.8;18;14
62981;PMS5003;49075;53.988;27.678;2022-11-13T02:34:55;17.4;17.2;13.8
62981;PMS5003;49075;53.988;27.678;2022-11-13T02:39:55;20.4;20.4;16.4
62981;PMS5003;49075;53.988;27.678;2022-11-13T02:44:41;17.6;17.4;13.8
62981;PMS5003;49075;53.988;27.678;2022-11-13T02:49:39;22.4;22;16.6
62981;PMS5003;49075;53.988;27.678;2022-11-13T02:54:41;20.4;19.8;16.4
62981;PMS5003;49075;53.988;27.678;2022-11-13T02:59:15;21;20.4;15.6
62981;PMS5003;49075;53.988;27.678;2022-11-13T03:04:55;16;15.8;11.4
62981;PMS5003;49075;53.988;27.678;2022-11-13T03:09:25;17.8;16.8;13.6
62981;PMS5003;49075;53.988;27.678;2022-11-13T03:14:55;19.5;19.5;17.3
62981;PMS5003;49075;53.988;27.678;2022-11-13T03:19:29;14.6;14.6;12
62981;PMS5003;49075;53.988;27.678;2022-11-13T03:24:53;15.6;15.4;12.6
62981;PMS5003;49075;53.988;27.678;2022-11-13T03:29:53;16.8;16.6;14.2
62981;PMS5003;49075;53.988;27.678;2022-11-13T03:34:37;19.8;19.2;16
62981;PMS5003;49075;53.988;27.678;2022-11-13T03:39:53;17.2;17;14.2
62981;PMS5003;49075;53.988;27.678;2022-11-13T03:44:41;14.4;14;11.4
62981;PMS5003;49075;53.988;27.678;2022-11-13T03:49:51;18.4;18.2;15.2
62981;PMS5003;49075;53.988;27.678;2022-11-13T03:54:31;18;17.6;15.6
62981;PMS5003;49075;53.988;27.678;2022-11-13T03:59:51;15.8;15.6;13.4
62981;PMS5003;49075;53.988;27.678;2022-11-13T04:04:53;18.6;18.2;15.8
62981;PMS5003;49075;53.988;27.678;2022-11-13T04:09:41;18;17.6;15
62981;PMS5003;49075;53.988;27.678;2022-11-13T04:14:25;14.8;14;12.5
62981;PMS5003;49075;53.988;27.678;2022-11-13T04:19:53;20;19.8;15.8
62981;PMS5003;49075;53.988;27.678;2022-11-13T04:24:51;20.2;20;15
62981;PMS5003;49075;53.988;27.678;2022-11-13T04:29:55;17.4;16.8;14
62981;PMS5003;49075;53.988;27.678;2022-11-13T04:34:29;15.8;15.6;13
62981;PMS5003;49075;53.988;27.678;2022-11-13T04:39:55;17.6;17.4;15.2
62981;PMS5003;49075;53.988;27.678;2022-11-13T04:44:15;15.8;15.8;14
62981;PMS5003;49075;53.988;27.678;2022-11-13T04:49:55;16.8;16;13
62981;PMS5003;49075;53.988;27.678;2022-11-13T04:54:25;20.6;20.4;16.6
62981;PMS5003;49075;53.988;27.678;2022-11-13T04:59:43;17.6;16.8;14.6
62981;PMS5003;49075;53.988;27.678;2022-11-13T05:04:55;17.8;17.6;14.6
62981;PMS5003;49075;53.988;27.678;2022-11-13T05:09:53;22;21.2;17.8
62981;PMS5003;49075;53.988;27.678;2022-11-13T05:14:55;17.5;17.5;13
62981;PMS5003;49075;53.988;27.678;2022-11-13T05:19:38;19.8;19.6;16.2
62981;PMS5003;49075;53.988;27.678;2022-11-13T05:24:41;18.8;18.6;15.6
62981;PMS5003;49075;53.988;27.678;2022-11-13T05:29:55;16.6;16.2;12.8
62981;PMS5003;49075;53.988;27.678;2022-11-13T05:34:06;16.8;16.6;13
62981;PMS5003;49075;53.988;27.678;2022-11-13T05:39:25;21.6;21.6;16.8
62981;PMS5003;49075;53.988;27.678;2022-11-13T05:44:55;22.2;21.6;16.8
62981;PMS5003;49075;53.988;27.678;2022-11-13T05:49:55;17.2;17.2;14.2
62981;PMS5003;49075;53.988;27.678;2022-11-13T05:54:43;21;20.8;15.8
62981;PMS5003;49075;53.988;27.678;2022-11-13T05:59:25;23.6;23;17.2
62981;PMS5003;49075;53.988;27.678;2022-11-13T06:04:39;17;16.6;13.2
62981;PMS5003;49075;53.988;27.678;2022-11-13T06:09:55;20.4;20.4;15.2
62981;PMS5003;49075;53.988;27.678;2022-11-13T06:14:43;19;19;13.4
62981;PMS5003;49075;53.988;27.678;2022-11-13T06:19:53;20.8;20.3;15.8
62981;PMS5003;49075;53.988;27.678;2022-11-13T06:24:55;19.8;19.4;15.8
62981;PMS5003;49075;53.988;27.678;2022-11-13T06:29:55;22;21.6;17.4
62981;PMS5003;49075;53.988;27.678;2022-11-13T06:34:39;20;18.8;14.6
62981;PMS5003;49075;53.988;27.678;2022-11-13T06:39:41;19.2;19;15.4
62981;PMS5003;49075;53.988;27.678;2022-11-13T06:44:40;18;18;14
62981;PMS5003;49075;53.988;27.678;2022-11-13T06:49:05;21.8;21.8;16.2
62981;PMS5003;49075;53.988;27.678;2022-11-13T06:54:15;22;21.2;16.6
62981;PMS5003;49075;53.988;27.678;2022-11-13T06:59:55;20.4;20.2;16
62981;PMS5003;49075;53.988;27.678;2022-11-13T07:04:29;22;22;17.3
62981;PMS5003;49075;53.988;27.678;2022-11-13T07:09:55;23;23;17.7
62981;PMS5003;49075;53.988;27.678;2022-11-13T07:14:55;19.6;19.4;15.2
62981;PMS5003;49075;53.988;27.678;2022-11-13T07:19:41;20.4;19.8;15.2
62981;PMS5003;49075;53.988;27.678;2022-11-13T07:24:25;20.6;20.6;15.4
62981;PMS5003;49075;53.988;27.678;2022-11-13T07:29:44;22.3;21.5;17
62981;PMS5003;49075;53.988;27.678;2022-11-13T07:34:27;17;16.4;13.4
62981;PMS5003;49075;53.988;27.678;2022-11-13T07:39:53;21.4;21.2;17.6
62981;PMS5003;49075;53.988;27.678;2022-11-13T07:44:53;19.4;19;14.6
62981;PMS5003;49075;53.988;27.678;2022-11-13T07:49:53;19.4;18.6;14.6
62981;PMS5003;49075;53.988;27.678;2022-11-13T07:54:41;24.2;23.4;18.8
62981;PMS5003;49075;53.988;27.678;2022-11-13T07:59:27;19.6;19.4;14.6
62981;PMS5003;49075;53.988;27.678;2022-11-13T08:04:15;23.6;22.2;18
62981;PMS5003;49075;53.988;27.678;2022-11-13T08:09:05;22.8;22.6;15.8
62981;PMS5003;49075;53.988;27.678;2022-11-13T08:14:53;19.4;19;14.6
62981;PMS5003;49075;53.988;27.678;2022-11-13T08:19:19;22.8;22.4;16.8
62981;PMS5003;49075;53.988;27.678;2022-11-13T08:24:55;28.6;27.6;19.6
62981;PMS5003;49075;53.988;27.678;2022-11-13T08:29:55;26.5;26;18.3
62981;PMS5003;49075;53.988;27.678;2022-11-13T08:34:15;25.2;24.6;16.6
62981;PMS5003;49075;53.988;27.678;2022-11-13T08:39:53;24.6;24.4;17.6
62981;PMS5003;49075;53.988;27.678;2022-11-13T08:44:43;19.8;19;14
62981;PMS5003;49075;53.988;27.678;2022-11-13T08:49:37;18.8;18;13.8
62981;PMS5003;49075;53.988;27.678;2022-11-13T08:54:33;17.6;17.2;14
62981;PMS5003;49075;53.988;27.678;2022-11-13T08:59:25;22.2;21.2;15.2
62981;PMS5003;49075;53.988;27.678;2022-11-13T09:04:43;18.2;18;13.6
62981;PMS5003;49075;53.988;27.678;2022-11-13T09:09:42;18.6;18.6;15.2
62981;PMS5003;49075;53.988;27.678;2022-11-13T09:14:27;17.4;17.2;13.8
62981;PMS5003;49075;53.988;27.678;2022-11-13T09:19:56;22.8;22.4;17
62981;PMS5003;49075;53.988;27.678;2022-11-13T09:24:06;18.8;18.4;15.6
62981;PMS5003;49075;53.988;27.678;2022-11-13T09:29:53;18.2;17.8;14.2
62981;PMS5003;49075;53.988;27.678;2022-11-13T09:34:29;17;17;14.8
62981;PMS5003;49075;53.988;27.678;2022-11-13T09:39:53;17.6;17.4;14.2
62981;PMS5003;49075;53.988;27.678;2022-11-13T09:44:55;20.6;20;17
62981;PMS5003;49075;53.988;27.678;2022-11-13T09:49:56;15.4;14.8;13.2
62981;PMS5003;49075;53.988;27.678;2022-11-13T09:54:23;17.8;17.8;15
62981;PMS5003;49075;53.988;27.678;2022-11-13T09:59:43;18.6;18.6;15.8
62981;PMS5003;49075;53.988;27.678;2022-11-13T10:04:29;17;17;13.4
62981;PMS5003;49075;53.988;27.678;2022-11-13T10:09:09;15.2;15;12.8
62981;PMS5003;49075;53.988;27.678;2022-11-13T10:14:16;18;17.8;14.4
62981;PMS5003;49075;53.988;27.678;2022-11-13T10:19:55;15.8;15.5;13.8
62981;PMS5003;49075;53.988;27.678;2022-11-13T10:24:44;16.4;16.4;13.4
62981;PMS5003;49075;53.988;27.678;2022-11-13T10:29:28;17.2;16;13.8
62981;PMS5003;49075;53.988;27.678;2022-11-13T10:34:28;20.6;20.6;15.8
62981;PMS5003;49075;53.988;27.678;2022-11-13T10:39:56;19.2;18.4;14.8
62981;PMS5003;49075;53.988;27.678;2022-11-13T10:44:56;23.8;23.8;18.8
62981;PMS5003;49075;53.988;27.678;2022-11-13T10:49:20;18.6;18.4;15.4
62981;PMS5003;49075;53.988;27.678;2022-11-13T10:55:03;15.6;15.6;13.6
62981;PMS5003;49075;53.988;27.678;2022-11-13T10:59:36;18.4;17.8;15.8
62981;PMS5003;49075;53.988;27.678;2022-11-13T11:04:18;16.4;15.6;12.8
62981;PMS5003;49075;53.988;27.678;2022-11-13T11:09:52;14.2;14;11
62981;PMS5003;49075;53.988;27.678;2022-11-13T11:14:43;13.4;12.8;11.2
62981;PMS5003;49075;53.988;27.678;2022-11-13T11:19:18;13.8;13.8;12.3
62981;PMS5003;49075;53.988;27.678;2022-11-13T11:24:56;16.8;16;13.6
62981;PMS5003;49075;53.988;27.678;2022-11-13T11:29:59;14.4;14.2;11.4
62981;PMS5003;49075;53.988;27.678;2022-11-13T11:34:39;17.6;17.2;14.4
62981;PMS5003;49075;53.988;27.678;2022-11-13T11:39:41;16.4;16;13.2
62981;PMS5003;49075;53.988;27.678;2022-11-13T11:44:28;18.6;18.4;14.8
62981;PMS5003;49075;53.988;27.678;2022-11-13T11:49:40;20.6;19.6;15.6
62981;PMS5003;49075;53.988;27.678;2022-11-13T11:54:30;26.4;26;18.8
62981;PMS5003;49075;53.988;27.678;2022-11-13T11:59:57;27.4;26.6;19.2
62981;PMS5003;49075;53.988;27.678;2022-11-13T12:04:47;31;29.4;20.6
62981;PMS5003;49075;53.988;27.678;2022-11-13T12:09:28;17.2;15.8;12.6
62981;PMS5003;49075;53.988;27.678;2022-11-13T12:14:17;18.6;18.4;14.8
62981;PMS5003;49075;53.988;27.678;2022-11-13T12:19:18;18;17;12.5
62981;PMS5003;49075;53.988;27.678;2022-11-13T12:24:21;19.8;19;15.8
62981;PMS5003;49075;53.988;27.678;2022-11-13T12:29:46;19.4;19.2;14.8
62981;PMS5003;49075;53.988;27.678;2022-11-13T12:34:39;15.6;15.2;11.8
62981;PMS5003;49075;53.988;27.678;2022-11-13T12:39:45;14.4;14.2;10.2
62981;PMS5003;49075;53.988;27.678;2022-11-13T12:44:26;16;15.6;12.4
62981;PMS5003;49075;53.988;27.678;2022-11-13T12:49:40;18;16.8;14
62981;PMS5003;49075;53.988;27.678;2022-11-13T12:55:23;19.6;18.8;14.6
62981;PMS5003;49075;53.988;27.678;2022-11-13T12:59:30;23.4;22.2;17.4
62981;PMS5003;49075;53.988;27.678;2022-11-13T13:04:37;26.4;26;19
62981;PMS5003;49075;53.988;27.678;2022-11-13T13:09:34;27.2;26.2;19.4
62981;PMS5003;49075;53.988;27.678;2022-11-13T13:15:00;29;27.4;19.8
62981;PMS5003;49075;53.988;27.678;2022-11-13T13:19:30;31.3;29.3;20.8
62981;PMS5003;49075;53.988;27.678;2022-11-13T13:24:44;28.2;26.2;17.2
62981;PMS5003;49075;53.988;27.678;2022-11-13T13:29:19;24.2;23.2;17
62981;PMS5003;49075;53.988;27.678;2022-11-13T13:34:57;21.2;21;15.4
62981;PMS5003;49075;53.988;27.678;2022-11-13T13:39:57;17.8;17.2;13
62981;PMS5003;49075;53.988;27.678;2022-11-13T13:44:47;22;21.6;16
62981;PMS5003;49075;53.988;27.678;2022-11-13T13:49:38;19;18.8;13.6
62981;PMS5003;49075;53.988;27.678;2022-11-13T13:54:42;19.2;18.6;14.2
62981;PMS5003;49075;53.988;27.678;2022-11-13T13:59:14;21.4;20.8;15.6
62981;PMS5003;49075;53.988;27.678;2022-11-13T14:04:54;20;19.8;14
62981;PMS5003;49075;53.988;27.678;2022-11-13T14:09:44;21.8;21.4;15.6
62981;PMS5003;49075;53.988;27.678;2022-11-13T14:14:38;21.4;21;15.6
62981;PMS5003;49075;53.988;27.678;2022-11-13T14:19:38;20.8;20.2;15.4
62981;PMS5003;49075;53.988;27.678;2022-11-13T14:24:07;27;26.5;19.5
62981;PMS5003;49075;53.988;27.678;2022-11-13T14:29:56;21.2;20.2;14.8
62981;PMS5003;49075;53.988;27.678;2022-11-13T14:34:30;28.4;27.2;19
62981;PMS5003;49075;53.988;27.678;2022-11-13T14:39:44;24.8;24;19.4
62981;PMS5003;49075;53.988;27.678;2022-11-13T14:44:24;28.8;27.6;20.2
62981;PMS5003;49075;53.988;27.678;2022-11-13T14:49:42;24.8;23.6;18.2
62981;PMS5003;49075;53.988;27.678;2022-11-13T14:54:26;30;28.8;19.4
62981;PMS5003;49075;53.988;27.678;2022-11-13T14:59:56;23;22.6;17.8
62981;PMS5003;49075;53.988;27.678;2022-11-13T15:04:40;26.2;25.2;18
62981;PMS5003;49075;53.988;27.678;2022-11-13T15:09:42;27.4;27;20.2
62981;PMS5003;49075;53.988;27.678;2022-11-13T15:14:24;24.2;23.6;18.8
62981;PMS5003;49075;53.988;27.678;2022-11-13T15:19:54;24.4;23.8;17.6
62981;PMS5003;49075;53.988;27.678;2022-11-13T15:24:54;25;24.3;18
62981;PMS5003;49075;53.988;27.678;2022-11-13T15:29:28;26.8;26.8;20.6
62981;PMS5003;49075;53.988;27.678;2022-11-13T15:34:40;23.4;23.2;17.8
62981;PMS5003;49075;53.988;27.678;2022-11-13T15:39:30;27.4;26.4;20
62981;PMS5003;49075;53.988;27.678;2022-11-13T15:44:26;25.4;25;19.4
62981;PMS5003;49075;53.988;27.678;2022-11-13T15:49:56;24.2;23;18
62981;PMS5003;49075;53.988;27.678;2022-11-13T15:54:30;22.2;21.8;16.8
62981;PMS5003;49075;53.988;27.678;2022-11-13T15:59:56;27.6;26.6;20.4
62981;PMS5003;49075;53.988;27.678;2022-11-13T16:04:56;20;19;15.4
62981;PMS5003;49075;53.988;27.678;2022-11-13T16:09:40;21.4;20.4;16.8
62981;PMS5003;49075;53.988;27.678;2022-11-13T16:14:42;22;21.6;16.8
62981;PMS5003;49075;53.988;27.678;2022-11-13T16:19:56;19.6;19.6;16.6
62981;PMS5003;49075;53.988;27.678;2022-11-13T16:24:56;19.5;19.3;14.5
62981;PMS5003;49075;53.988;27.678;2022-11-13T16:29:17;18.4;17.8;15
62981;PMS5003;49075;53.988;27.678;2022-11-13T16:34:42;21;19.8;15.2
62981;PMS5003;49075;53.988;27.678;2022-11-13T16:39:30;19;18.6;15.4
62981;PMS5003;49075;53.988;27.678;2022-11-13T16:44:42;19.2;18.4;14.8
62981;PMS5003;49075;53.988;27.678;2022-11-13T16:49:10;18.8;18.6;15
62981;PMS5003;49075;53.988;27.678;2022-11-13T16:54:16;20.8;19.8;15.4
62981;PMS5003;49075;53.988;27.678;2022-11-13T16:59:40;17.8;17.2;13.8
62981;PMS5003;49075;53.988;27.678;2022-11-13T17:04:56;23.4;22.2;16.4
62981;PMS5003;49075;53.988;27.678;2022-11-13T17:09:30;25;25;17.4
62981;PMS5003;49075;53.988;27.678;2022-11-13T17:14:56;20;19.2;14.8
62981;PMS5003;49075;53.988;27.678;2022-11-13T17:19:40;19.2;18.6;15.4
62981;PMS5003;49075;53.988;27.678;2022-11-13T17:24:40;23;22.5;18.8
62981;PMS5003;49075;53.988;27.678;2022-11-13T17:29:42;25.8;24.6;17.6
62981;PMS5003;49075;53.988;27.678;2022-11-13T17:34:56;20;19.8;15.2
62981;PMS5003;49075;53.988;27.678;2022-11-13T17:39:54;20.6;20.6;16.2
62981;PMS5003;49075;53.988;27.678;2022-11-13T17:44:06;19;18.8;14.5
62981;PMS5003;49075;53.988;27.678;2022-11-13T17:49:42;15.2;15;11.8
62981;PMS5003;49075;53.988;27.678;2022-11-13T17:54:30;15;15;13.2
62981;PMS5003;49075;53.988;27.678;2022-11-13T17:59:44;16.4;15.8;13.2
62981;PMS5003;49075;53.988;27.678;2022-11-13T18:04:18;18.5;18.5;15
62981;PMS5003;49075;53.988;27.678;2022-11-13T18:09:16;15.2;15.2;12.6
62981;PMS5003;49075;53.988;27.678;2022-11-13T18:14:16;17.2;17.2;13.6
62981;PMS5003;49075;53.988;27.678;2022-11-13T18:19:58;23.8;23.4;16.4
62981;PMS5003;49075;53.988;27.678;2022-11-13T18:24:20;16.4;16.4;12.6
62981;PMS5003;49075;53.988;27.678;2022-11-13T18:29:46;20.6;20.6;16.2
62981;PMS5003;49075;53.988;27.678;2022-11-13T18:34:06;20;20;15.8
62981;PMS5003;49075;53.988;27.678;2022-11-13T18:39:40;19.8;19.8;15.5
62981;PMS5003;49075;53.988;27.678;2022-11-13T18:44:58;18;17.6;14
62981;PMS5003;49075;53.988;27.678;2022-11-13T18:49:58;15.6;15;13.2
62981;PMS5003;49075;53.988;27.678;2022-11-13T18:54:54;15.2;15;13.2
62981;PMS5003;49075;53.988;27.678;2022-11-13T18:59:16;14.5;14.3;12
62981;PMS5003;49075;53.988;27.678;2022-11-13T19:04:58;13.6;13.2;10.6
62981;PMS5003;49075;53.988;27.678;2022-11-13T19:09:16;15;15;12
62981;PMS5003;49075;53.988;27.678;2022-11-13T19:14:44;16.4;16.4;14
62981;PMS5003;49075;53.988;27.678;2022-11-13T19:19:19;16.8;15.8;13.6
62981;PMS5003;49075;53.988;27.678;2022-11-13T19:24:58;15;14.8;12.6
62981;PMS5003;49075;53.988;27.678;2022-11-13T19:29:26;19.2;19;15.2
62981;PMS5003;49075;53.988;27.678;2022-11-13T19:34:58;19.2;18.8;15.6
62981;PMS5003;49075;53.988;27.678;2022-11-13T19:39:44;18.2;17.4;14
62981;PMS5003;49075;53.988;27.678;2022-11-13T19:44:58;19.4;19.4;16.4
62981;PMS5003;49075;53.988;27.678;2022-11-13T19:49:26;18.5;18.5;14.3
62981;PMS5003;49075;53.988;27.678;2022-11-13T19:54:40;19.4;19.2;15
62981;PMS5003;49075;53.988;27.678;2022-11-13T19:59:42;18;17.4;13.4
62981;PMS5003;49075;53.988;27.678;2022-11-13T20:04:58;18.6;18.6;14.8
62981;PMS5003;49075;53.988;27.678;2022-11-13T20:09:58;19;19;15.2
62981;PMS5003;49075;53.988;27.678;2022-11-13T20:14:16;28.6;26.6;19.6
62981;PMS5003;49075;53.988;27.678;2022-11-13T20:19:58;21.8;21.4;17.2
62981;PMS5003;49075;53.988;27.678;2022-11-13T20:24:20;16.4;16;13
62981;PMS5003;49075;53.988;27.678;2022-11-13T20:29:44;19;18.8;15.6
62981;PMS5003;49075;53.988;27.678;2022-11-13T20:34:28;16.4;16.4;13
62981;PMS5003;49075;53.988;27.678;2022-11-13T20:39:16;16.6;16.6;14
62981;PMS5003;49075;53.988;27.678;2022-11-13T20:44:16;16.8;16.4;13.8
62981;PMS5003;49075;53.988;27.678;2022-11-13T20:49:44;20;19.5;15.5
62981;PMS5003;49075;53.988;27.678;2022-11-13T20:54:30;16.4;15.8;13
62981;PMS5003;49075;53.988;27.678;2022-11-13T20:59:56;14.8;14.8;13.2
62981;PMS5003;49075;53.988;27.678;2022-11-13T21:04:58;19.6;19;16
62981;PMS5003;49075;53.988;27.678;2022-11-13T21:09:40;18.4;18.2;15.8
62981;PMS5003;49075;53.988;27.678;2022-11-13T21:14:28;15.8;15.4;12.8
62981;PMS5003;49075;53.988;27.678;2022-11-13T21:19:44;15.8;14.8;12.6
62981;PMS5003;49075;53.988;27.678;2022-11-13T21:24:58;15.2;14.8;13.8
62981;PMS5003;49075;53.988;27.678;2022-11-13T21:29:16;16.6;16.4;13.8
62981;PMS5003;49075;53.988;27.678;2022-11-13T21:34:56;18;18;15.8
62981;PMS5003;49075;53.988;27.678;2022-11-13T21:39:42;14.6;14.2;12.4
62981;PMS5003;49075;53.988;27.678;2022-11-13T21:44:44;15.4;15.4;12.6
62981;PMS5003;49075;53.988;27.678;2022-11-13T21:49:18;15;14.8;12.5
62981;PMS5003;49075;53.988;27.678;2022-11-13T21:54:58;18.2;18;15.2
62981;PMS5003;49075;53.988;27.678;2022-11-13T21:59:24;18.4;18.4;15.6
62981;PMS5003;49075;53.988;27.678;2022-11-13T22:04:52;26.7;26.3;19.7
62981;PMS5003;49075;53.988;27.678;2022-11-13T22:09:38;17.6;17.2;14.2
62981;PMS5003;49075;53.988;27.678;2022-11-13T22:14:54;17.2;17.2;14.6
62981;PMS5003;49075;53.988;27.678;2022-11-13T22:19:40;17.8;17.6;15.2
62981;PMS5003;49075;53.988;27.678;2022-11-13T22:24:30;13.8;13.8;11.8
62981;PMS5003;49075;53.988;27.678;2022-11-13T22:29:22;17;16.8;14.2
62981;PMS5003;49075;53.988;27.678;2022-11-13T22:34:40;17.4;16.8;14.4
62981;PMS5003;49075;53.988;27.678;2022-11-13T22:39:52;16.8;16.2;14.2
62981;PMS5003;49075;53.988;27.678;2022-11-13T22:44:40;16;15.8;13.3
62981;PMS5003;49075;53.988;27.678;2022-11-13T22:49:54;12;12;10.6
62981;PMS5003;49075;53.988;27.678;2022-11-13T22:54:38;12;12;11
62981;PMS5003;49075;53.988;27.678;2022-11-13T22:59:40;16.6;16.6;14.6
62981;PMS5003;49075;53.988;27.678;2022-11-13T23:04:24;16.4;16.4;14.4
62981;PMS5003;49075;53.988;27.678;2022-11-13T23:09:20;19.2;18.6;14.8
62981;PMS5003;49075;53.988;27.678;2022-11-13T23:14:52;15.4;14.8;11.8
62981;PMS5003;49075;53.988;27.678;2022-11-13T23:19:54;15.6;15.4;12.8
62981;PMS5003;49075;53.988;27.678;2022-11-13T23:24:26;15;14.8;12.4
62981;PMS5003;49075;53.988;27.678;2022-11-13T23:29:52;16;15.2;13.8
62981;PMS5003;49075;53.988;27.678;2022-11-13T23:34:12;13.2;13.2;11
62981;PMS5003;49075;53.988;27.678;2022-11-13T23:39:32;13.6;13.6;11
62981;PMS5003;49075;53.988;27.678;2022-11-13T23:44:22;16.3;16;13.3
62981;PMS5003;49075;53.988;27.678;2022-11-13T23:49:38;11.6;11.6;10.4
62981;PMS5003;49075;53.988;27.678;2022-11-13T23:54:52;18.4;18;16
62981;PMS5003;49075;53.988;27.678;2022-11-13T23:59:12;15.2;15;12.8
